sensor_id;sensor_type;location;lat;lon;timestamp;P1;durP1;ratioP1;P2;durP2;ratioP2
49193;SDS011;35029;50.804;12.866;2023-06-04T00:02:12;4.40;;;3.35;;
49193;SDS011;35029;50.804;12.866;2023-06-04T00:04:37;7.75;;;3.35;;
49193;SDS011;35029;50.804;12.866;2023-06-04T00:07:03;4.72;;;2.88;;
49193;SDS011;35029;50.804;12.866;2023-06-04T00:09:29;7.13;;;3.50;;
49193;SDS011;35029;50.804;12.866;2023-06-04T00:11:55;3.97;;;3.03;;
49193;SDS011;35029;50.804;12.866;2023-06-04T00:14:21;4.68;;;3.10;;
49193;SDS011;35029;50.804;12.866;2023-06-04T00:16:46;6.85;;;4.22;;
49193;SDS011;35029;50.804;12.866;2023-06-04T00:19:12;4.25;;;3.42;;
49193;SDS011;35029;50.804;12.866;2023-06-04T00:21:38;5.65;;;3.83;;
49193;SDS011;35029;50.804;12.866;2023-06-04T00:24:03;6.15;;;3.35;;
49193;SDS011;35029;50.804;12.866;2023-06-04T00:26:29;4.55;;;3.38;;
49193;SDS011;35029;50.804;12.866;2023-06-04T00:28:55;7.38;;;3.97;;
49193;SDS011;35029;50.804;12.866;2023-06-04T00:31:20;6.72;;;3.30;;
49193;SDS011;35029;50.804;12.866;2023-06-04T00:33:47;6.07;;;3.80;;
49193;SDS011;35029;50.804;12.866;2023-06-04T00:36:14;3.85;;;3.13;;
49193;SDS011;35029;50.804;12.866;2023-06-04T00:38:39;5.32;;;3.60;;
49193;SDS011;35029;50.804;12.866;2023-06-04T00:41:05;5.68;;;3.92;;
49193;SDS011;35029;50.804;12.866;2023-06-04T00:43:30;4.75;;;3.17;;
49193;SDS011;35029;50.804;12.866;2023-06-04T00:45:57;4.43;;;3.25;;
49193;SDS011;35029;50.804;12.866;2023-06-04T00:48:23;6.22;;;3.05;;
49193;SDS011;35029;50.804;12.866;2023-06-04T00:50:53;4.65;;;3.30;;
49193;SDS011;35029;50.804;12.866;2023-06-04T00:53:20;6.55;;;3.40;;
49193;SDS011;35029;50.804;12.866;2023-06-04T00:55:48;3.65;;;3.10;;
49193;SDS011;35029;50.804;12.866;2023-06-04T00:58:13;4.75;;;3.13;;
49193;SDS011;35029;50.804;12.866;2023-06-04T01:00:40;6.45;;;3.15;;
49193;SDS011;35029;50.804;12.866;2023-06-04T01:03:10;3.85;;;3.28;;
49193;SDS011;35029;50.804;12.866;2023-06-04T01:08:24;5.53;;;2.95;;
49193;SDS011;35029;50.804;12.866;2023-06-04T01:10:52;4.00;;;2.88;;
49193;SDS011;35029;50.804;12.866;2023-06-04T01:13:19;4.10;;;2.65;;
49193;SDS011;35029;50.804;12.866;2023-06-04T01:15:45;4.68;;;3.30;;
49193;SDS011;35029;50.804;12.866;2023-06-04T01:18:13;4.95;;;3.00;;
49193;SDS011;35029;50.804;12.866;2023-06-04T01:20:54;3.27;;;2.80;;
49193;SDS011;35029;50.804;12.866;2023-06-04T01:23:34;3.35;;;3.05;;
49193;SDS011;35029;50.804;12.866;2023-06-04T01:26:10;3.67;;;2.67;;
49193;SDS011;35029;50.804;12.866;2023-06-04T01:28:37;3.50;;;3.20;;
49193;SDS011;35029;50.804;12.866;2023-06-04T01:31:04;4.03;;;3.25;;
49193;SDS011;35029;50.804;12.866;2023-06-04T01:33:33;3.90;;;2.65;;
49193;SDS011;35029;50.804;12.866;2023-06-04T01:35:58;4.97;;;3.10;;
49193;SDS011;35029;50.804;12.866;2023-06-04T01:38:26;5.03;;;3.40;;
49193;SDS011;35029;50.804;12.866;2023-06-04T01:40:52;4.32;;;3.08;;
49193;SDS011;35029;50.804;12.866;2023-06-04T01:43:21;5.53;;;3.08;;
49193;SDS011;35029;50.804;12.866;2023-06-04T01:45:47;7.13;;;3.10;;
49193;SDS011;35029;50.804;12.866;2023-06-04T01:48:13;5.20;;;3.00;;
49193;SDS011;35029;50.804;12.866;2023-06-04T01:50:39;6.80;;;3.50;;
49193;SDS011;35029;50.804;12.866;2023-06-04T01:53:05;4.25;;;3.25;;
49193;SDS011;35029;50.804;12.866;2023-06-04T01:55:31;13.23;;;3.53;;
49193;SDS011;35029;50.804;12.866;2023-06-04T01:57:58;4.28;;;3.60;;
49193;SDS011;35029;50.804;12.866;2023-06-04T02:00:25;4.82;;;3.78;;
49193;SDS011;35029;50.804;12.866;2023-06-04T02:02:51;4.65;;;3.60;;
49193;SDS011;35029;50.804;12.866;2023-06-04T02:05:18;4.63;;;3.00;;
49193;SDS011;35029;50.804;12.866;2023-06-04T02:07:44;4.00;;;3.35;;
49193;SDS011;35029;50.804;12.866;2023-06-04T02:10:14;3.70;;;2.83;;
49193;SDS011;35029;50.804;12.866;2023-06-04T02:13:03;4.22;;;3.20;;
49193;SDS011;35029;50.804;12.866;2023-06-04T02:15:28;4.65;;;2.67;;
49193;SDS011;35029;50.804;12.866;2023-06-04T02:17:56;3.30;;;2.72;;
49193;SDS011;35029;50.804;12.866;2023-06-04T02:20:27;4.53;;;3.25;;
49193;SDS011;35029;50.804;12.866;2023-06-04T02:22:53;6.30;;;3.40;;
49193;SDS011;35029;50.804;12.866;2023-06-04T02:25:20;4.03;;;2.70;;
49193;SDS011;35029;50.804;12.866;2023-06-04T02:27:46;3.22;;;2.83;;
49193;SDS011;35029;50.804;12.866;2023-06-04T02:30:11;3.55;;;3.00;;
49193;SDS011;35029;50.804;12.866;2023-06-04T02:32:37;3.55;;;2.72;;
49193;SDS011;35029;50.804;12.866;2023-06-04T02:35:03;4.50;;;3.25;;
49193;SDS011;35029;50.804;12.866;2023-06-04T02:37:29;6.05;;;2.78;;
49193;SDS011;35029;50.804;12.866;2023-06-04T02:39:55;3.83;;;2.58;;
49193;SDS011;35029;50.804;12.866;2023-06-04T02:42:21;7.10;;;3.00;;
49193;SDS011;35029;50.804;12.866;2023-06-04T02:44:46;3.03;;;2.65;;
49193;SDS011;35029;50.804;12.866;2023-06-04T02:47:12;3.65;;;2.53;;
49193;SDS011;35029;50.804;12.866;2023-06-04T02:49:37;2.78;;;2.30;;
49193;SDS011;35029;50.804;12.866;2023-06-04T02:52:03;4.13;;;3.03;;
49193;SDS011;35029;50.804;12.866;2023-06-04T02:54:28;5.65;;;2.42;;
49193;SDS011;35029;50.804;12.866;2023-06-04T02:56:54;3.63;;;2.42;;
49193;SDS011;35029;50.804;12.866;2023-06-04T02:59:19;3.75;;;2.88;;
49193;SDS011;35029;50.804;12.866;2023-06-04T03:01:45;2.50;;;2.30;;
49193;SDS011;35029;50.804;12.866;2023-06-04T03:04:11;4.38;;;2.58;;
49193;SDS011;35029;50.804;12.866;2023-06-04T03:06:40;3.38;;;2.83;;
49193;SDS011;35029;50.804;12.866;2023-06-04T03:09:10;3.65;;;2.50;;
49193;SDS011;35029;50.804;12.866;2023-06-04T03:11:36;3.25;;;2.38;;
49193;SDS011;35029;50.804;12.866;2023-06-04T03:14:02;6.95;;;2.70;;
49193;SDS011;35029;50.804;12.866;2023-06-04T03:16:27;4.88;;;2.80;;
49193;SDS011;35029;50.804;12.866;2023-06-04T03:18:53;4.00;;;2.97;;
49193;SDS011;35029;50.804;12.866;2023-06-04T03:21:19;4.25;;;2.72;;
49193;SDS011;35029;50.804;12.866;2023-06-04T03:23:44;4.00;;;2.88;;
49193;SDS011;35029;50.804;12.866;2023-06-04T03:26:10;4.22;;;2.88;;
49193;SDS011;35029;50.804;12.866;2023-06-04T03:28:38;3.97;;;2.83;;
49193;SDS011;35029;50.804;12.866;2023-06-04T03:31:04;4.50;;;3.30;;
49193;SDS011;35029;50.804;12.866;2023-06-04T03:33:30;3.55;;;2.67;;
49193;SDS011;35029;50.804;12.866;2023-06-04T03:35:55;3.90;;;2.50;;
49193;SDS011;35029;50.804;12.866;2023-06-04T03:38:24;4.05;;;3.20;;
49193;SDS011;35029;50.804;12.866;2023-06-04T03:40:50;8.30;;;2.78;;
49193;SDS011;35029;50.804;12.866;2023-06-04T03:43:18;3.15;;;2.85;;
49193;SDS011;35029;50.804;12.866;2023-06-04T03:45:45;3.88;;;2.85;;
49193;SDS011;35029;50.804;12.866;2023-06-04T03:48:11;4.00;;;2.75;;
49193;SDS011;35029;50.804;12.866;2023-06-04T03:50:36;3.38;;;2.80;;
49193;SDS011;35029;50.804;12.866;2023-06-04T03:53:02;5.88;;;2.85;;
49193;SDS011;35029;50.804;12.866;2023-06-04T03:55:31;3.88;;;2.72;;
49193;SDS011;35029;50.804;12.866;2023-06-04T03:57:58;3.35;;;2.80;;
49193;SDS011;35029;50.804;12.866;2023-06-04T04:00:24;3.47;;;3.08;;
49193;SDS011;35029;50.804;12.866;2023-06-04T04:02:53;4.93;;;2.85;;
49193;SDS011;35029;50.804;12.866;2023-06-04T04:05:26;4.00;;;2.97;;
49193;SDS011;35029;50.804;12.866;2023-06-04T04:07:52;3.50;;;2.50;;
49193;SDS011;35029;50.804;12.866;2023-06-04T04:10:22;3.30;;;3.00;;
49193;SDS011;35029;50.804;12.866;2023-06-04T04:12:48;4.35;;;3.05;;
49193;SDS011;35029;50.804;12.866;2023-06-04T04:15:15;4.60;;;3.08;;
49193;SDS011;35029;50.804;12.866;2023-06-04T04:17:42;4.60;;;3.42;;
49193;SDS011;35029;50.804;12.866;2023-06-04T04:20:08;4.18;;;3.13;;
49193;SDS011;35029;50.804;12.866;2023-06-04T04:22:39;4.60;;;3.58;;
49193;SDS011;35029;50.804;12.866;2023-06-04T04:25:06;5.07;;;3.50;;
49193;SDS011;35029;50.804;12.866;2023-06-04T04:27:32;6.93;;;3.80;;
49193;SDS011;35029;50.804;12.866;2023-06-04T04:30:00;5.20;;;4.10;;
49193;SDS011;35029;50.804;12.866;2023-06-04T04:32:27;7.78;;;4.22;;
49193;SDS011;35029;50.804;12.866;2023-06-04T04:34:53;7.85;;;3.95;;
49193;SDS011;35029;50.804;12.866;2023-06-04T04:37:24;6.03;;;4.18;;
49193;SDS011;35029;50.804;12.866;2023-06-04T04:39:54;5.60;;;3.90;;
49193;SDS011;35029;50.804;12.866;2023-06-04T04:42:22;5.75;;;4.07;;
49193;SDS011;35029;50.804;12.866;2023-06-04T04:44:49;6.75;;;4.72;;
49193;SDS011;35029;50.804;12.866;2023-06-04T04:47:17;5.50;;;4.40;;
49193;SDS011;35029;50.804;12.866;2023-06-04T04:49:42;4.40;;;4.00;;
49193;SDS011;35029;50.804;12.866;2023-06-04T04:52:08;6.70;;;4.50;;
49193;SDS011;35029;50.804;12.866;2023-06-04T04:54:35;6.78;;;4.28;;
49193;SDS011;35029;50.804;12.866;2023-06-04T04:57:01;7.40;;;3.83;;
49193;SDS011;35029;50.804;12.866;2023-06-04T04:59:27;4.93;;;4.20;;
49193;SDS011;35029;50.804;12.866;2023-06-04T05:01:54;5.50;;;4.10;;
49193;SDS011;35029;50.804;12.866;2023-06-04T05:04:20;5.85;;;3.25;;
49193;SDS011;35029;50.804;12.866;2023-06-04T05:06:46;11.20;;;4.55;;
49193;SDS011;35029;50.804;12.866;2023-06-04T05:09:11;5.25;;;4.03;;
49193;SDS011;35029;50.804;12.866;2023-06-04T05:11:37;6.93;;;4.22;;
49193;SDS011;35029;50.804;12.866;2023-06-04T05:14:03;4.43;;;3.45;;
49193;SDS011;35029;50.804;12.866;2023-06-04T05:16:29;3.95;;;3.10;;
49193;SDS011;35029;50.804;12.866;2023-06-04T05:18:55;4.07;;;2.70;;
49193;SDS011;35029;50.804;12.866;2023-06-04T05:21:24;3.80;;;3.25;;
49193;SDS011;35029;50.804;12.866;2023-06-04T05:23:58;3.15;;;2.38;;
49193;SDS011;35029;50.804;12.866;2023-06-04T05:26:29;2.80;;;2.25;;
49193;SDS011;35029;50.804;12.866;2023-06-04T05:28:58;3.28;;;2.40;;
49193;SDS011;35029;50.804;12.866;2023-06-04T05:31:26;2.60;;;2.40;;
49193;SDS011;35029;50.804;12.866;2023-06-04T05:33:56;2.80;;;2.23;;
49193;SDS011;35029;50.804;12.866;2023-06-04T05:36:25;6.07;;;2.20;;
49193;SDS011;35029;50.804;12.866;2023-06-04T05:38:55;4.47;;;2.72;;
49193;SDS011;35029;50.804;12.866;2023-06-04T05:41:25;2.95;;;2.53;;
49193;SDS011;35029;50.804;12.866;2023-06-04T05:43:53;3.00;;;2.15;;
49193;SDS011;35029;50.804;12.866;2023-06-04T05:46:18;5.22;;;3.03;;
49193;SDS011;35029;50.804;12.866;2023-06-04T05:48:45;3.25;;;2.20;;
49193;SDS011;35029;50.804;12.866;2023-06-04T05:51:12;2.67;;;2.22;;
49193;SDS011;35029;50.804;12.866;2023-06-04T05:53:39;4.55;;;2.30;;
49193;SDS011;35029;50.804;12.866;2023-06-04T05:56:04;5.75;;;2.70;;
49193;SDS011;35029;50.804;12.866;2023-06-04T05:58:33;3.92;;;2.33;;
49193;SDS011;35029;50.804;12.866;2023-06-04T06:01:00;2.25;;;1.88;;
49193;SDS011;35029;50.804;12.866;2023-06-04T06:03:25;4.65;;;2.22;;
49193;SDS011;35029;50.804;12.866;2023-06-04T06:05:53;2.00;;;1.75;;
49193;SDS011;35029;50.804;12.866;2023-06-04T06:08:20;2.78;;;1.88;;
49193;SDS011;35029;50.804;12.866;2023-06-04T06:10:46;3.65;;;2.33;;
49193;SDS011;35029;50.804;12.866;2023-06-04T06:13:12;2.08;;;1.83;;
49193;SDS011;35029;50.804;12.866;2023-06-04T06:15:37;2.92;;;2.03;;
49193;SDS011;35029;50.804;12.866;2023-06-04T06:18:03;1.80;;;1.45;;
49193;SDS011;35029;50.804;12.866;2023-06-04T06:20:30;2.97;;;2.00;;
49193;SDS011;35029;50.804;12.866;2023-06-04T06:22:56;2.55;;;1.88;;
49193;SDS011;35029;50.804;12.866;2023-06-04T06:25:22;3.72;;;1.83;;
49193;SDS011;35029;50.804;12.866;2023-06-04T06:27:57;2.88;;;2.15;;
49193;SDS011;35029;50.804;12.866;2023-06-04T06:30:24;2.88;;;1.73;;
49193;SDS011;35029;50.804;12.866;2023-06-04T06:32:50;2.75;;;1.70;;
49193;SDS011;35029;50.804;12.866;2023-06-04T06:35:15;2.42;;;1.88;;
49193;SDS011;35029;50.804;12.866;2023-06-04T06:37:42;3.80;;;1.70;;
49193;SDS011;35029;50.804;12.866;2023-06-04T06:40:09;7.97;;;2.28;;
49193;SDS011;35029;50.804;12.866;2023-06-04T06:42:35;2.95;;;1.75;;
49193;SDS011;35029;50.804;12.866;2023-06-04T06:45:00;2.45;;;1.60;;
49193;SDS011;35029;50.804;12.866;2023-06-04T06:47:26;3.20;;;1.77;;
49193;SDS011;35029;50.804;12.866;2023-06-04T06:49:52;2.97;;;1.88;;
49193;SDS011;35029;50.804;12.866;2023-06-04T06:52:17;2.67;;;1.92;;
49193;SDS011;35029;50.804;12.866;2023-06-04T06:54:45;2.20;;;1.63;;
49193;SDS011;35029;50.804;12.866;2023-06-04T06:57:11;2.50;;;1.80;;
49193;SDS011;35029;50.804;12.866;2023-06-04T06:59:37;2.35;;;1.67;;
49193;SDS011;35029;50.804;12.866;2023-06-04T07:02:02;3.83;;;1.67;;
49193;SDS011;35029;50.804;12.866;2023-06-04T07:04:28;2.50;;;1.70;;
49193;SDS011;35029;50.804;12.866;2023-06-04T07:06:54;2.30;;;1.73;;
49193;SDS011;35029;50.804;12.866;2023-06-04T07:09:20;3.40;;;1.77;;
49193;SDS011;35029;50.804;12.866;2023-06-04T07:11:45;1.95;;;1.60;;
49193;SDS011;35029;50.804;12.866;2023-06-04T07:14:11;2.72;;;2.03;;
49193;SDS011;35029;50.804;12.866;2023-06-04T07:16:36;3.30;;;1.90;;
49193;SDS011;35029;50.804;12.866;2023-06-04T07:19:02;2.40;;;1.50;;
49193;SDS011;35029;50.804;12.866;2023-06-04T07:21:27;1.90;;;1.70;;
49193;SDS011;35029;50.804;12.866;2023-06-04T07:23:53;3.03;;;1.67;;
49193;SDS011;35029;50.804;12.866;2023-06-04T07:26:18;2.75;;;1.83;;
49193;SDS011;35029;50.804;12.866;2023-06-04T07:28:45;4.00;;;1.98;;
49193;SDS011;35029;50.804;12.866;2023-06-04T07:31:11;2.10;;;1.90;;
49193;SDS011;35029;50.804;12.866;2023-06-04T07:33:40;2.85;;;1.83;;
49193;SDS011;35029;50.804;12.866;2023-06-04T07:36:14;3.15;;;1.95;;
49193;SDS011;35029;50.804;12.866;2023-06-04T07:38:41;1.70;;;1.38;;
49193;SDS011;35029;50.804;12.866;2023-06-04T07:41:07;4.50;;;2.28;;
49193;SDS011;35029;50.804;12.866;2023-06-04T07:43:35;2.45;;;1.75;;
49193;SDS011;35029;50.804;12.866;2023-06-04T07:46:02;2.67;;;1.50;;
49193;SDS011;35029;50.804;12.866;2023-06-04T07:48:28;3.17;;;2.13;;
49193;SDS011;35029;50.804;12.866;2023-06-04T07:50:56;2.78;;;1.83;;
49193;SDS011;35029;50.804;12.866;2023-06-04T07:53:25;2.73;;;1.63;;
49193;SDS011;35029;50.804;12.866;2023-06-04T07:55:52;3.33;;;1.60;;
49193;SDS011;35029;50.804;12.866;2023-06-04T07:58:18;4.68;;;1.65;;
49193;SDS011;35029;50.804;12.866;2023-06-04T08:00:43;2.90;;;1.63;;
49193;SDS011;35029;50.804;12.866;2023-06-04T08:03:09;3.30;;;1.40;;
49193;SDS011;35029;50.804;12.866;2023-06-04T08:05:35;2.22;;;1.52;;
49193;SDS011;35029;50.804;12.866;2023-06-04T08:08:01;3.80;;;1.73;;
49193;SDS011;35029;50.804;12.866;2023-06-04T08:10:29;2.45;;;1.75;;
49193;SDS011;35029;50.804;12.866;2023-06-04T08:12:55;2.25;;;1.45;;
49193;SDS011;35029;50.804;12.866;2023-06-04T08:15:21;1.88;;;1.60;;
49193;SDS011;35029;50.804;12.866;2023-06-04T08:17:46;1.60;;;1.48;;
49193;SDS011;35029;50.804;12.866;2023-06-04T08:20:12;1.92;;;1.73;;
49193;SDS011;35029;50.804;12.866;2023-06-04T08:22:37;7.30;;;1.83;;
49193;SDS011;35029;50.804;12.866;2023-06-04T08:25:03;6.43;;;2.08;;
49193;SDS011;35029;50.804;12.866;2023-06-04T08:27:30;4.28;;;1.83;;
49193;SDS011;35029;50.804;12.866;2023-06-04T08:29:56;6.05;;;1.80;;
49193;SDS011;35029;50.804;12.866;2023-06-04T08:32:23;3.47;;;1.70;;
49193;SDS011;35029;50.804;12.866;2023-06-04T08:34:49;1.83;;;1.52;;
49193;SDS011;35029;50.804;12.866;2023-06-04T08:37:16;2.58;;;1.48;;
49193;SDS011;35029;50.804;12.866;2023-06-04T08:39:45;12.18;;;2.17;;
49193;SDS011;35029;50.804;12.866;2023-06-04T08:42:30;3.28;;;1.58;;
49193;SDS011;35029;50.804;12.866;2023-06-04T08:45:09;4.28;;;1.80;;
49193;SDS011;35029;50.804;12.866;2023-06-04T08:47:43;3.08;;;1.85;;
49193;SDS011;35029;50.804;12.866;2023-06-04T08:50:22;4.30;;;1.83;;
49193;SDS011;35029;50.804;12.866;2023-06-04T08:52:53;3.25;;;1.60;;
49193;SDS011;35029;50.804;12.866;2023-06-04T08:55:22;2.33;;;1.70;;
49193;SDS011;35029;50.804;12.866;2023-06-04T08:57:51;1.50;;;1.40;;
49193;SDS011;35029;50.804;12.866;2023-06-04T09:00:17;1.73;;;1.60;;
49193;SDS011;35029;50.804;12.866;2023-06-04T09:02:43;2.45;;;1.52;;
49193;SDS011;35029;50.804;12.866;2023-06-04T09:05:10;4.10;;;2.13;;
49193;SDS011;35029;50.804;12.866;2023-06-04T09:07:44;4.05;;;1.60;;
49193;SDS011;35029;50.804;12.866;2023-06-04T09:10:11;3.08;;;1.70;;
49193;SDS011;35029;50.804;12.866;2023-06-04T09:12:42;2.33;;;1.65;;
49193;SDS011;35029;50.804;12.866;2023-06-04T09:15:11;2.60;;;1.70;;
49193;SDS011;35029;50.804;12.866;2023-06-04T09:17:38;5.18;;;2.00;;
49193;SDS011;35029;50.804;12.866;2023-06-04T09:20:04;5.47;;;1.77;;
49193;SDS011;35029;50.804;12.866;2023-06-04T09:22:34;2.85;;;1.65;;
49193;SDS011;35029;50.804;12.866;2023-06-04T09:25:03;3.92;;;1.73;;
49193;SDS011;35029;50.804;12.866;2023-06-04T09:27:36;4.78;;;1.95;;
49193;SDS011;35029;50.804;12.866;2023-06-04T09:30:04;1.92;;;1.55;;
49193;SDS011;35029;50.804;12.866;2023-06-04T09:32:31;5.32;;;1.83;;
49193;SDS011;35029;50.804;12.866;2023-06-04T09:35:09;5.00;;;1.88;;
49193;SDS011;35029;50.804;12.866;2023-06-04T09:37:43;2.10;;;1.50;;
49193;SDS011;35029;50.804;12.866;2023-06-04T09:40:17;3.45;;;1.80;;
49193;SDS011;35029;50.804;12.866;2023-06-04T09:45:25;2.55;;;1.60;;
49193;SDS011;35029;50.804;12.866;2023-06-04T09:47:55;3.97;;;1.48;;
49193;SDS011;35029;50.804;12.866;2023-06-04T09:52:59;6.65;;;1.90;;
49193;SDS011;35029;50.804;12.866;2023-06-04T09:55:25;2.47;;;1.67;;
49193;SDS011;35029;50.804;12.866;2023-06-04T09:57:52;3.05;;;1.60;;
49193;SDS011;35029;50.804;12.866;2023-06-04T10:00:19;4.40;;;1.60;;
49193;SDS011;35029;50.804;12.866;2023-06-04T10:02:49;3.25;;;1.90;;
49193;SDS011;35029;50.804;12.866;2023-06-04T10:05:17;2.90;;;1.95;;
49193;SDS011;35029;50.804;12.866;2023-06-04T10:07:46;3.53;;;1.70;;
49193;SDS011;35029;50.804;12.866;2023-06-04T10:10:16;3.72;;;1.52;;
49193;SDS011;35029;50.804;12.866;2023-06-04T10:12:45;2.38;;;1.67;;
49193;SDS011;35029;50.804;12.866;2023-06-04T10:15:15;2.67;;;1.83;;
49193;SDS011;35029;50.804;12.866;2023-06-04T10:17:43;2.80;;;1.80;;
49193;SDS011;35029;50.804;12.866;2023-06-04T10:20:09;2.30;;;1.60;;
49193;SDS011;35029;50.804;12.866;2023-06-04T10:22:38;1.75;;;1.52;;
49193;SDS011;35029;50.804;12.866;2023-06-04T10:25:05;4.90;;;2.03;;
49193;SDS011;35029;50.804;12.866;2023-06-04T10:27:32;5.50;;;1.98;;
49193;SDS011;35029;50.804;12.866;2023-06-04T10:30:00;2.88;;;1.50;;
49193;SDS011;35029;50.804;12.866;2023-06-04T10:32:27;2.50;;;1.70;;
49193;SDS011;35029;50.804;12.866;2023-06-04T10:34:54;5.10;;;1.73;;
49193;SDS011;35029;50.804;12.866;2023-06-04T10:37:20;2.53;;;1.25;;
49193;SDS011;35029;50.804;12.866;2023-06-04T10:39:56;2.47;;;1.83;;
49193;SDS011;35029;50.804;12.866;2023-06-04T10:42:22;2.88;;;1.50;;
49193;SDS011;35029;50.804;12.866;2023-06-04T10:44:49;3.83;;;1.65;;
49193;SDS011;35029;50.804;12.866;2023-06-04T10:49:50;3.45;;;1.60;;
49193;SDS011;35029;50.804;12.866;2023-06-04T10:52:17;4.57;;;1.60;;
49193;SDS011;35029;50.804;12.866;2023-06-04T10:54:44;5.28;;;1.40;;
49193;SDS011;35029;50.804;12.866;2023-06-04T10:57:17;5.32;;;1.35;;
49193;SDS011;35029;50.804;12.866;2023-06-04T10:59:56;3.97;;;1.98;;
49193;SDS011;35029;50.804;12.866;2023-06-04T11:02:22;2.22;;;1.73;;
49193;SDS011;35029;50.804;12.866;2023-06-04T11:04:58;2.42;;;1.80;;
49193;SDS011;35029;50.804;12.866;2023-06-04T11:07:42;6.55;;;1.52;;
49193;SDS011;35029;50.804;12.866;2023-06-04T11:10:09;2.35;;;1.58;;
49193;SDS011;35029;50.804;12.866;2023-06-04T11:15:08;2.95;;;1.80;;
49193;SDS011;35029;50.804;12.866;2023-06-04T11:17:33;2.78;;;2.08;;
49193;SDS011;35029;50.804;12.866;2023-06-04T11:19:59;5.45;;;1.60;;
49193;SDS011;35029;50.804;12.866;2023-06-04T11:22:25;1.95;;;1.50;;
49193;SDS011;35029;50.804;12.866;2023-06-04T11:24:57;4.88;;;1.58;;
49193;SDS011;35029;50.804;12.866;2023-06-04T11:27:26;4.38;;;1.40;;
49193;SDS011;35029;50.804;12.866;2023-06-04T11:29:52;2.35;;;1.67;;
49193;SDS011;35029;50.804;12.866;2023-06-04T11:32:21;5.00;;;1.77;;
49193;SDS011;35029;50.804;12.866;2023-06-04T11:34:47;1.40;;;1.30;;
49193;SDS011;35029;50.804;12.866;2023-06-04T11:37:13;2.33;;;1.58;;
49193;SDS011;35029;50.804;12.866;2023-06-04T11:39:38;1.98;;;1.60;;
49193;SDS011;35029;50.804;12.866;2023-06-04T11:42:05;2.88;;;2.05;;
49193;SDS011;35029;50.804;12.866;2023-06-04T11:44:32;2.92;;;1.60;;
49193;SDS011;35029;50.804;12.866;2023-06-04T11:46:58;1.95;;;1.63;;
49193;SDS011;35029;50.804;12.866;2023-06-04T11:49:24;2.03;;;1.33;;
49193;SDS011;35029;50.804;12.866;2023-06-04T11:51:51;2.17;;;1.63;;
49193;SDS011;35029;50.804;12.866;2023-06-04T11:54:21;3.90;;;1.48;;
49193;SDS011;35029;50.804;12.866;2023-06-04T11:56:50;5.22;;;1.50;;
49193;SDS011;35029;50.804;12.866;2023-06-04T11:59:17;3.45;;;1.73;;
49193;SDS011;35029;50.804;12.866;2023-06-04T12:01:43;5.10;;;1.92;;
49193;SDS011;35029;50.804;12.866;2023-06-04T12:04:11;1.65;;;1.55;;
49193;SDS011;35029;50.804;12.866;2023-06-04T12:09:24;3.00;;;1.52;;
49193;SDS011;35029;50.804;12.866;2023-06-04T12:11:57;2.53;;;1.63;;
49193;SDS011;35029;50.804;12.866;2023-06-04T12:14:27;3.45;;;1.40;;
49193;SDS011;35029;50.804;12.866;2023-06-04T12:17:05;4.38;;;1.75;;
49193;SDS011;35029;50.804;12.866;2023-06-04T12:19:33;2.47;;;1.73;;
49193;SDS011;35029;50.804;12.866;2023-06-04T12:22:09;6.00;;;2.00;;
49193;SDS011;35029;50.804;12.866;2023-06-04T12:24:45;2.80;;;1.55;;
49193;SDS011;35029;50.804;12.866;2023-06-04T12:27:14;1.92;;;1.65;;
49193;SDS011;35029;50.804;12.866;2023-06-04T12:30:02;3.70;;;1.88;;
49193;SDS011;35029;50.804;12.866;2023-06-04T12:32:35;2.95;;;1.73;;
49193;SDS011;35029;50.804;12.866;2023-06-04T12:37:33;2.83;;;1.52;;
49193;SDS011;35029;50.804;12.866;2023-06-04T12:40:00;3.83;;;1.60;;
49193;SDS011;35029;50.804;12.866;2023-06-04T12:42:26;3.22;;;1.75;;
49193;SDS011;35029;50.804;12.866;2023-06-04T12:44:54;3.13;;;1.58;;
49193;SDS011;35029;50.804;12.866;2023-06-04T12:47:20;1.98;;;1.50;;
49193;SDS011;35029;50.804;12.866;2023-06-04T12:49:46;10.02;;;2.30;;
49193;SDS011;35029;50.804;12.866;2023-06-04T12:52:12;5.10;;;1.88;;
49193;SDS011;35029;50.804;12.866;2023-06-04T12:54:42;5.72;;;1.50;;
49193;SDS011;35029;50.804;12.866;2023-06-04T12:57:08;2.33;;;1.80;;
49193;SDS011;35029;50.804;12.866;2023-06-04T12:59:34;3.35;;;2.10;;
49193;SDS011;35029;50.804;12.866;2023-06-04T13:02:00;2.72;;;1.70;;
49193;SDS011;35029;50.804;12.866;2023-06-04T13:04:26;2.67;;;1.90;;
49193;SDS011;35029;50.804;12.866;2023-06-04T13:06:52;3.80;;;1.75;;
49193;SDS011;35029;50.804;12.866;2023-06-04T13:09:20;2.00;;;1.70;;
49193;SDS011;35029;50.804;12.866;2023-06-04T13:11:48;1.95;;;1.50;;
49193;SDS011;35029;50.804;12.866;2023-06-04T13:14:13;2.83;;;2.00;;
49193;SDS011;35029;50.804;12.866;2023-06-04T13:16:39;5.47;;;1.90;;
49193;SDS011;35029;50.804;12.866;2023-06-04T13:19:06;2.28;;;1.70;;
49193;SDS011;35029;50.804;12.866;2023-06-04T13:21:32;3.22;;;1.75;;
49193;SDS011;35029;50.804;12.866;2023-06-04T13:23:58;2.35;;;1.83;;
49193;SDS011;35029;50.804;12.866;2023-06-04T13:26:23;4.63;;;1.52;;
49193;SDS011;35029;50.804;12.866;2023-06-04T13:28:49;4.00;;;1.70;;
49193;SDS011;35029;50.804;12.866;2023-06-04T13:31:15;2.25;;;1.55;;
49193;SDS011;35029;50.804;12.866;2023-06-04T13:33:40;2.45;;;1.55;;
49193;SDS011;35029;50.804;12.866;2023-06-04T13:36:06;2.58;;;1.83;;
49193;SDS011;35029;50.804;12.866;2023-06-04T13:38:33;3.85;;;1.92;;
49193;SDS011;35029;50.804;12.866;2023-06-04T13:40:59;2.33;;;1.65;;
49193;SDS011;35029;50.804;12.866;2023-06-04T13:43:24;3.25;;;1.48;;
49193;SDS011;35029;50.804;12.866;2023-06-04T13:45:50;3.75;;;2.00;;
49193;SDS011;35029;50.804;12.866;2023-06-04T13:48:16;3.50;;;1.35;;
49193;SDS011;35029;50.804;12.866;2023-06-04T13:50:42;2.65;;;1.73;;
49193;SDS011;35029;50.804;12.866;2023-06-04T13:53:08;4.75;;;1.60;;
49193;SDS011;35029;50.804;12.866;2023-06-04T13:55:34;1.92;;;1.70;;
49193;SDS011;35029;50.804;12.866;2023-06-04T13:57:59;2.17;;;1.67;;
49193;SDS011;35029;50.804;12.866;2023-06-04T14:00:25;2.42;;;1.70;;
49193;SDS011;35029;50.804;12.866;2023-06-04T14:02:51;3.53;;;1.73;;
49193;SDS011;35029;50.804;12.866;2023-06-04T14:05:17;4.18;;;1.90;;
49193;SDS011;35029;50.804;12.866;2023-06-04T14:07:43;3.35;;;1.60;;
49193;SDS011;35029;50.804;12.866;2023-06-04T14:10:09;2.08;;;1.58;;
49193;SDS011;35029;50.804;12.866;2023-06-04T14:12:37;2.22;;;1.85;;
49193;SDS011;35029;50.804;12.866;2023-06-04T14:15:05;2.30;;;1.55;;
49193;SDS011;35029;50.804;12.866;2023-06-04T14:17:33;4.05;;;1.40;;
49193;SDS011;35029;50.804;12.866;2023-06-04T14:19:59;3.13;;;1.55;;
49193;SDS011;35029;50.804;12.866;2023-06-04T14:22:25;1.80;;;1.50;;
49193;SDS011;35029;50.804;12.866;2023-06-04T14:24:50;5.25;;;1.80;;
49193;SDS011;35029;50.804;12.866;2023-06-04T14:27:16;2.63;;;1.60;;
49193;SDS011;35029;50.804;12.866;2023-06-04T14:29:41;2.33;;;1.50;;
49193;SDS011;35029;50.804;12.866;2023-06-04T14:32:07;3.65;;;1.65;;
49193;SDS011;35029;50.804;12.866;2023-06-04T14:34:33;2.92;;;1.83;;
49193;SDS011;35029;50.804;12.866;2023-06-04T14:36:59;2.08;;;1.70;;
49193;SDS011;35029;50.804;12.866;2023-06-04T14:39:25;2.65;;;1.88;;
49193;SDS011;35029;50.804;12.866;2023-06-04T14:41:54;2.13;;;1.63;;
49193;SDS011;35029;50.804;12.866;2023-06-04T14:44:20;5.35;;;1.95;;
49193;SDS011;35029;50.804;12.866;2023-06-04T14:46:46;1.60;;;1.45;;
49193;SDS011;35029;50.804;12.866;2023-06-04T14:49:12;2.13;;;1.50;;
49193;SDS011;35029;50.804;12.866;2023-06-04T14:51:38;2.30;;;1.70;;
49193;SDS011;35029;50.804;12.866;2023-06-04T14:54:03;12.45;;;2.10;;